Time;durP1;ratioP1;P1;durP2;ratioP2;P2;SDS_P1;SDS_P2;PMS_P1;PMS_P2;Temp;Humidity;BMP_temperature;BMP_pressure;BME280_temperature;BME280_humidity;BME280_pressure;Samples;Min_cycle;Max_cycle;Signal;HPM_P1;HPM_P2
2022/09/10 00:01:31;;;;;;;15.55;11.13;;;14.30;99.90;;;;;;5037223;28;20038;-69
2022/09/10 00:03:58;;;;;;;24.95;12.95;;;14.30;99.90;;;;;;5037122;28;20449;-70
2022/09/10 00:06:26;;;;;;;19.05;11.82;;;14.30;99.90;;;;;;5036787;28;20047;-70
2022/09/10 00:08:55;;;;;;;16.17;11.63;;;14.30;99.90;;;;;;5037661;28;20057;-69
2022/09/10 00:11:21;;;;;;;21.42;14.05;;;14.30;99.90;;;;;;5037067;28;20049;-68
2022/09/10 00:13:48;;;;;;;18.35;12.32;;;14.30;99.90;;;;;;5020053;28;20130;-70
2022/09/10 00:16:14;;;;;;;21.25;13.73;;;14.30;99.90;;;;;;5037270;28;20437;-69
2022/09/10 00:18:40;;;;;;;33.40;16.45;;;14.30;99.90;;;;;;5019363;28;20041;-69
2022/09/10 00:21:09;;;;;;;21.02;13.00;;;14.30;99.90;;;;;;5037127;28;20633;-69
2022/09/10 00:23:35;;;;;;;19.90;14.30;;;14.40;99.90;;;;;;5037042;28;20044;-69
2022/09/10 00:26:16;;;;;;;20.50;13.60;;;14.40;99.90;;;;;;5036943;28;20045;-69
2022/09/10 00:28:42;;;;;;;22.75;14.65;;;14.40;99.90;;;;;;5037023;28;20050;-69
2022/09/10 00:31:09;;;;;;;23.73;14.63;;;14.40;99.90;;;;;;5036983;28;20045;-69
2022/09/10 00:33:35;;;;;;;29.70;16.10;;;14.40;99.90;;;;;;5036454;28;20049;-69
2022/09/10 00:36:04;;;;;;;20.98;13.07;;;14.40;99.90;;;;;;5036719;28;20056;-69
2022/09/10 00:38:30;;;;;;;20.88;14.60;;;14.40;99.90;;;;;;5036529;28;20401;-70
2022/09/10 00:41:04;;;;;;;19.58;13.63;;;14.50;99.90;;;;;;5037102;28;20080;-69
2022/09/10 00:43:51;;;;;;;24.20;15.68;;;14.50;99.90;;;;;;5036739;28;20049;-69
2022/09/10 00:46:42;;;;;;;28.08;17.60;;;14.60;99.90;;;;;;5036721;28;20056;-69
2022/09/10 00:49:21;;;;;;;26.58;15.90;;;14.60;99.90;;;;;;5036566;28;20045;-69
2022/09/10 00:51:50;;;;;;;19.25;14.45;;;14.60;99.90;;;;;;5036555;28;20048;-69
2022/09/10 00:54:19;;;;;;;25.25;15.55;;;14.70;99.90;;;;;;5036396;28;20116;-69
2022/09/10 00:56:45;;;;;;;25.92;15.48;;;14.70;99.90;;;;;;5036324;28;20176;-70
2022/09/10 00:59:15;;;;;;;22.20;15.27;;;14.70;99.90;;;;;;5036199;28;20374;-69
2022/09/10 01:01:41;;;;;;;33.33;17.83;;;14.70;99.90;;;;;;5036596;28;20362;-71
2022/09/10 01:04:09;;;;;;;28.77;17.10;;;14.70;99.90;;;;;;5036010;28;20056;-70
2022/09/10 01:06:36;;;;;;;24.05;16.10;;;14.70;99.90;;;;;;5036305;28;20152;-69
2022/09/10 01:09:03;;;;;;;31.77;17.40;;;14.70;99.90;;;;;;5036095;28;20041;-70
2022/09/10 01:11:48;;;;;;;21.38;16.45;;;14.80;99.90;;;;;;5036069;28;20098;-69
2022/09/10 01:14:37;;;;;;;35.13;18.08;;;14.80;99.90;;;;;;5036352;28;20046;-69
2022/09/10 01:17:25;;;;;;;28.20;17.65;;;14.80;99.90;;;;;;5035243;28;20049;-68
2022/09/10 01:20:27;;;;;;;25.67;17.42;;;14.80;99.90;;;;;;5035732;28;20053;-70
2022/09/10 01:23:28;;;;;;;23.02;16.98;;;14.80;99.90;;;;;;5036057;28;20053;-71
2022/09/10 01:26:25;;;;;;;19.48;13.68;;;14.80;99.90;;;;;;5035716;28;20060;-68
2022/09/10 01:29:19;;;;;;;27.48;17.40;;;14.90;99.90;;;;;;5036015;28;20057;-69
2022/09/10 01:32:00;;;;;;;28.50;17.42;;;14.90;99.90;;;;;;5035387;28;20466;-70
2022/09/10 01:34:33;;;;;;;24.75;16.77;;;15.00;99.90;;;;;;5016097;28;20053;-69
2022/09/10 01:37:13;;;;;;;28.45;19.67;;;15.00;99.90;;;;;;5015960;28;20111;-69
2022/09/10 01:39:40;;;;;;;28.77;17.67;;;15.00;99.90;;;;;;5015472;28;20071;-69
2022/09/10 01:42:06;;;;;;;27.67;18.33;;;15.00;99.90;;;;;;5019638;28;20037;-69
2022/09/10 01:44:50;;;;;;;21.80;17.17;;;15.00;99.90;;;;;;5018333;28;20045;-69
2022/09/10 01:47:28;;;;;;;25.27;18.35;;;15.00;99.90;;;;;;5035584;28;20053;-69
2022/09/10 01:50:20;;;;;;;23.10;17.88;;;15.00;99.90;;;;;;5035544;28;20041;-68
2022/09/10 01:53:12;;;;;;;24.90;17.73;;;15.00;99.90;;;;;;5035301;28;20124;-70
2022/09/10 01:56:14;;;;;;;30.77;19.45;;;15.10;99.90;;;;;;5034838;28;20465;-70
2022/09/10 01:58:44;;;;;;;27.98;20.13;;;15.10;99.90;;;;;;5034966;28;20057;-69
2022/09/10 02:01:12;;;;;;;23.52;18.10;;;15.10;99.90;;;;;;5035173;28;20450;-69
2022/09/10 02:03:41;;;;;;;25.77;18.45;;;15.10;99.90;;;;;;5035509;28;20082;-69
2022/09/10 02:06:10;;;;;;;24.27;19.25;;;15.20;99.90;;;;;;5035234;28;20045;-69
2022/09/10 02:08:39;;;;;;;21.73;17.83;;;15.10;99.90;;;;;;5035876;28;20093;-69
2022/09/10 02:11:08;;;;;;;23.08;18.02;;;15.20;99.90;;;;;;5035278;28;20354;-69
2022/09/10 02:13:35;;;;;;;21.88;16.85;;;15.10;99.90;;;;;;5034894;28;20320;-70
2022/09/10 02:16:05;;;;;;;28.73;18.65;;;15.10;99.90;;;;;;5017750;28;20107;-69
2022/09/10 02:18:31;;;;;;;24.00;18.15;;;15.10;99.90;;;;;;5034937;28;20037;-68
2022/09/10 02:20:59;;;;;;;33.13;22.38;;;15.10;99.90;;;;;;5034986;28;20056;-69
2022/09/10 02:23:36;;;;;;;34.05;22.63;;;15.20;99.90;;;;;;5034517;28;20052;-69
2022/09/10 02:26:01;;;;;;;33.13;21.85;;;15.20;99.90;;;;;;5034536;28;20120;-71
2022/09/10 02:28:29;;;;;;;29.40;21.10;;;15.20;99.90;;;;;;5034480;28;20053;-68
2022/09/10 02:30:54;;;;;;;25.02;20.17;;;15.10;99.90;;;;;;5034769;28;20054;-69
2022/09/10 02:33:20;;;;;;;33.17;22.10;;;15.20;99.90;;;;;;5034814;28;20045;-69
2022/09/10 02:35:47;;;;;;;27.15;22.88;;;15.10;99.90;;;;;;5034840;28;20450;-70
2022/09/10 02:38:13;;;;;;;42.13;23.00;;;15.20;99.90;;;;;;5034979;28;20092;-69
2022/09/10 02:40:38;;;;;;;28.98;21.23;;;15.20;99.90;;;;;;5034631;28;20430;-69
2022/09/10 02:43:04;;;;;;;31.08;22.08;;;15.20;99.90;;;;;;5034220;28;20363;-70
2022/09/10 02:45:30;;;;;;;34.90;23.33;;;15.20;99.90;;;;;;5035121;28;20072;-69
2022/09/10 02:47:56;;;;;;;34.03;23.73;;;15.20;99.90;;;;;;5034570;28;20543;-70
2022/09/10 02:50:23;;;;;;;35.75;25.17;;;15.20;99.90;;;;;;5034924;28;20045;-68
2022/09/10 02:52:50;;;;;;;27.67;20.90;;;15.20;99.90;;;;;;5035052;28;20187;-69
2022/09/10 02:55:16;;;;;;;45.42;25.00;;;15.20;99.90;;;;;;5034067;28;20071;-70
2022/09/10 02:57:42;;;;;;;40.58;25.55;;;15.20;99.90;;;;;;5034210;28;20073;-70
2022/09/10 03:00:09;;;;;;;37.47;24.58;;;15.20;99.90;;;;;;5016990;28;20425;-69
2022/09/10 03:02:35;;;;;;;42.53;26.75;;;15.20;99.90;;;;;;5034978;28;20088;-69
2022/09/10 03:05:03;;;;;;;49.65;27.63;;;15.20;99.90;;;;;;5034858;28;20041;-69
2022/09/10 03:07:30;;;;;;;40.72;25.48;;;15.20;99.90;;;;;;5034940;28;20068;-69
2022/09/10 03:09:55;;;;;;;41.22;27.23;;;15.30;99.90;;;;;;5034354;28;20041;-69
2022/09/10 03:12:21;;;;;;;44.08;27.83;;;15.20;99.90;;;;;;5033935;28;20425;-69
2022/09/10 03:14:47;;;;;;;40.80;27.25;;;15.30;99.90;;;;;;5034430;28;20441;-69
2022/09/10 03:17:13;;;;;;;42.08;27.95;;;15.30;99.90;;;;;;5034540;28;20060;-71
2022/09/10 03:19:39;;;;;;;47.15;29.65;;;15.20;99.90;;;;;;5017178;28;20054;-69
2022/09/10 03:22:05;;;;;;;44.10;28.35;;;15.30;99.90;;;;;;5034353;28;20461;-69
2022/09/10 03:24:30;;;;;;;54.03;30.75;;;15.30;99.90;;;;;;5034389;28;20033;-70
2022/09/10 03:26:56;;;;;;;38.50;26.23;;;15.30;99.90;;;;;;5034401;28;20095;-69
2022/09/10 03:29:23;;;;;;;43.90;27.48;;;15.30;99.90;;;;;;5033804;28;20045;-69
2022/09/10 03:31:50;;;;;;;36.50;25.73;;;15.30;99.90;;;;;;5034292;28;20046;-70
2022/09/10 03:34:16;;;;;;;56.92;30.30;;;15.30;99.90;;;;;;5034595;28;20045;-69
2022/09/10 03:36:42;;;;;;;42.05;26.42;;;15.30;99.90;;;;;;5034406;28;20041;-69
2022/09/10 03:39:08;;;;;;;37.85;26.52;;;15.20;99.90;;;;;;5034167;28;20072;-70
2022/09/10 03:41:34;;;;;;;40.00;26.67;;;15.20;99.90;;;;;;5030474;28;20064;-68
2022/09/10 03:44:00;;;;;;;39.40;26.70;;;15.20;99.90;;;;;;5037552;28;20084;-69
2022/09/10 03:46:25;;;;;;;46.40;28.00;;;15.20;99.90;;;;;;5037764;28;20045;-69
2022/09/10 03:48:51;;;;;;;43.83;27.55;;;15.10;99.90;;;;;;5038025;28;20059;-68
2022/09/10 03:51:17;;;;;;;46.22;27.80;;;15.20;99.90;;;;;;5037660;28;20080;-69
2022/09/10 03:53:42;;;;;;;39.50;27.38;;;15.30;99.90;;;;;;5037494;28;20038;-69
2022/09/10 03:56:09;;;;;;;39.28;24.55;;;15.30;99.90;;;;;;5037034;28;20053;-69
2022/09/10 03:58:35;;;;;;;41.50;26.25;;;15.20;99.90;;;;;;5037826;28;20053;-69
2022/09/10 04:01:01;;;;;;;36.47;23.63;;;15.30;99.90;;;;;;5037482;28;20103;-70
2022/09/10 04:03:27;;;;;;;38.15;25.30;;;15.20;99.90;;;;;;5037818;28;20089;-69
2022/09/10 04:05:53;;;;;;;40.03;25.98;;;15.30;99.90;;;;;;5037553;28;20509;-70
2022/09/10 04:08:19;;;;;;;31.60;23.88;;;15.30;99.90;;;;;;5037429;28;20083;-70
2022/09/10 04:10:46;;;;;;;42.10;24.83;;;15.20;99.90;;;;;;5037153;28;20053;-70
2022/09/10 04:13:12;;;;;;;38.72;24.90;;;15.30;99.90;;;;;;5036811;28;20045;-69
2022/09/10 04:15:39;;;;;;;28.98;21.98;;;15.20;99.90;;;;;;5020468;28;20203;-69
2022/09/10 04:18:05;;;;;;;40.72;27.35;;;15.30;99.90;;;;;;5037316;28;20406;-69
2022/09/10 04:20:32;;;;;;;42.03;26.60;;;15.20;99.90;;;;;;5037194;28;20400;-69
2022/09/10 04:22:59;;;;;;;39.88;25.67;;;15.30;99.90;;;;;;5037119;28;20060;-69
2022/09/10 04:25:24;;;;;;;42.30;26.02;;;15.20;99.90;;;;;;5036984;28;20095;-68
2022/09/10 04:27:50;;;;;;;28.13;21.63;;;15.30;99.90;;;;;;5036632;28;20083;-69
2022/09/10 04:30:17;;;;;;;38.33;25.52;;;15.20;99.90;;;;;;5037082;28;20055;-71
2022/09/10 04:32:43;;;;;;;34.22;23.77;;;15.20;99.90;;;;;;5037327;28;20099;-69
2022/09/10 04:35:09;;;;;;;42.70;26.45;;;15.30;99.90;;;;;;5036741;28;20453;-69
2022/09/10 04:37:35;;;;;;;36.67;24.70;;;15.20;99.90;;;;;;5036941;28;20183;-69
2022/09/10 04:40:01;;;;;;;30.95;22.20;;;15.20;99.90;;;;;;5037221;28;20057;-68
2022/09/10 04:42:27;;;;;;;33.58;23.75;;;15.20;99.90;;;;;;5036454;28;20053;-69
2022/09/10 04:44:53;;;;;;;31.48;23.23;;;15.20;99.90;;;;;;5037471;28;20053;-68
2022/09/10 04:47:19;;;;;;;28.65;21.10;;;15.20;99.90;;;;;;5036568;28;20084;-69
2022/09/10 04:49:44;;;;;;;40.95;25.13;;;15.20;99.90;;;;;;5036282;28;20044;-67
2022/09/10 04:52:11;;;;;;;32.55;22.92;;;15.20;99.90;;;;;;5036097;28;20037;-71
2022/09/10 04:54:38;;;;;;;30.63;21.77;;;15.20;99.90;;;;;;5035392;28;20401;-69
2022/09/10 04:57:04;;;;;;;34.75;22.85;;;15.20;99.90;;;;;;5036045;28;20033;-71
2022/09/10 04:59:30;;;;;;;29.60;20.67;;;15.20;99.90;;;;;;5036634;28;20111;-70
2022/09/10 05:01:56;;;;;;;34.60;24.17;;;15.20;99.90;;;;;;5036527;28;20045;-68
2022/09/10 05:04:22;;;;;;;36.83;24.08;;;15.20;99.90;;;;;;5036580;28;20056;-69
2022/09/10 05:06:49;;;;;;;33.72;22.33;;;15.20;99.90;;;;;;5036119;28;20049;-69
2022/09/10 05:09:18;;;;;;;30.20;21.63;;;15.20;99.90;;;;;;5036031;28;20049;-71
2022/09/10 05:11:45;;;;;;;31.05;21.75;;;15.10;99.90;;;;;;5035673;28;20045;-69
2022/09/10 05:14:12;;;;;;;32.58;22.85;;;15.10;99.90;;;;;;5036212;28;20041;-69
2022/09/10 05:16:38;;;;;;;30.10;22.25;;;15.20;99.90;;;;;;5036188;28;20041;-69
2022/09/10 05:19:05;;;;;;;32.03;22.13;;;15.20;99.90;;;;;;5035569;28;20438;-69
2022/09/10 05:21:31;;;;;;;34.88;23.38;;;15.20;99.90;;;;;;5035693;28;20112;-69
2022/09/10 05:23:56;;;;;;;35.35;22.83;;;15.10;99.90;;;;;;5035563;28;20544;-69
2022/09/10 05:26:23;;;;;;;33.83;23.23;;;15.20;99.90;;;;;;5036011;28;20354;-68
2022/09/10 05:28:52;;;;;;;27.77;20.48;;;15.20;99.90;;;;;;5035882;28;20052;-69
2022/09/10 05:31:18;;;;;;;31.83;22.90;;;15.20;99.90;;;;;;5035626;28;20045;-68
2022/09/10 05:33:45;;;;;;;34.78;22.65;;;15.30;99.90;;;;;;5035863;28;20046;-68
2022/09/10 05:36:10;;;;;;;37.00;23.30;;;15.20;99.90;;;;;;5035301;28;20053;-69
2022/09/10 05:38:36;;;;;;;33.70;23.58;;;15.30;99.90;;;;;;5035658;28;20061;-69
2022/09/10 05:41:02;;;;;;;36.20;24.65;;;15.30;99.90;;;;;;5035206;28;20369;-68
2022/09/10 05:43:27;;;;;;;32.28;23.38;;;15.30;99.90;;;;;;5035577;28;20057;-69
2022/09/10 05:45:53;;;;;;;32.53;22.25;;;15.30;99.90;;;;;;5035493;28;20072;-69
2022/09/10 05:48:20;;;;;;;32.53;22.60;;;15.30;99.90;;;;;;5018261;28;20056;-69
2022/09/10 05:50:45;;;;;;;37.42;23.45;;;15.40;99.90;;;;;;5035215;28;20379;-69
2022/09/10 05:53:11;;;;;;;35.72;22.80;;;15.40;99.90;;;;;;5035290;28;20041;-69
2022/09/10 05:55:37;;;;;;;35.97;22.75;;;15.40;99.90;;;;;;5034885;28;20045;-69
2022/09/10 05:58:02;;;;;;;37.00;23.52;;;15.30;99.90;;;;;;5035180;28;20099;-69
2022/09/10 06:00:29;;;;;;;33.53;21.70;;;15.50;99.90;;;;;;5035273;28;20056;-70
2022/09/10 06:02:55;;;;;;;29.70;21.92;;;15.50;99.90;;;;;;5035435;28;20041;-70
2022/09/10 06:05:22;;;;;;;31.60;22.23;;;15.50;99.90;;;;;;5034746;28;20059;-69
2022/09/10 06:07:48;;;;;;;33.72;23.48;;;15.50;99.90;;;;;;5034915;28;20053;-69
2022/09/10 06:10:14;;;;;;;28.40;20.23;;;15.50;99.90;;;;;;5034753;28;20049;-69
2022/09/10 06:12:45;;;;;;;38.85;21.98;;;15.50;99.90;;;;;;5035037;28;20043;-69
2022/09/10 06:15:10;;;;;;;29.38;21.30;;;15.50;99.90;;;;;;5034854;28;20042;-68
2022/09/10 06:17:37;;;;;;;39.35;22.23;;;15.50;99.90;;;;;;5016940;28;20049;-69
2022/09/10 06:20:03;;;;;;;32.30;21.52;;;15.50;99.90;;;;;;5018838;28;20140;-68
2022/09/10 06:22:29;;;;;;;40.92;24.73;;;15.50;99.90;;;;;;5018253;28;20045;-69
2022/09/10 06:24:55;;;;;;;43.10;23.50;;;15.50;99.90;;;;;;5023301;28;20473;-70
2022/09/10 06:27:22;;;;;;;40.45;23.88;;;15.50;99.90;;;;;;5025127;28;20092;-70
2022/09/10 06:29:48;;;;;;;38.97;23.52;;;15.50;99.90;;;;;;5025151;28;20132;-70
2022/09/10 06:32:13;;;;;;;31.40;21.33;;;15.50;99.90;;;;;;5023600;28;20065;-70
2022/09/10 06:34:39;;;;;;;39.78;24.83;;;15.50;99.90;;;;;;5024145;28;20125;-69
2022/09/10 06:37:05;;;;;;;37.90;23.10;;;15.50;99.90;;;;;;5025329;28;20045;-69
2022/09/10 06:39:31;;;;;;;33.42;21.75;;;15.50;99.90;;;;;;5022236;28;20045;-68
2022/09/10 06:41:56;;;;;;;37.92;22.83;;;15.50;99.90;;;;;;5024330;28;20100;-70
2022/09/10 06:44:22;;;;;;;34.80;21.05;;;15.50;99.90;;;;;;5022340;28;20385;-70
2022/09/10 06:46:48;;;;;;;35.92;22.88;;;15.60;99.90;;;;;;5022845;28;20053;-70
2022/09/10 06:49:14;;;;;;;43.72;24.83;;;15.60;99.90;;;;;;5022380;28;20053;-70
2022/09/10 06:51:40;;;;;;;34.97;22.45;;;15.60;99.90;;;;;;5023641;28;20049;-70
2022/09/10 06:54:06;;;;;;;35.70;23.33;;;15.70;99.90;;;;;;5020866;28;20359;-70
2022/09/10 06:56:32;;;;;;;41.53;23.98;;;15.70;99.90;;;;;;5021614;28;20060;-71
2022/09/10 06:58:58;;;;;;;39.83;23.67;;;15.70;99.90;;;;;;5024793;28;20042;-73
2022/09/10 07:01:24;;;;;;;34.65;22.48;;;15.70;99.90;;;;;;5021337;28;20180;-71
2022/09/10 07:03:57;;;;;;;39.90;24.23;;;15.70;99.90;;;;;;5008933;28;20366;-71
2022/09/10 07:06:24;;;;;;;53.22;26.65;;;15.70;99.90;;;;;;5025118;28;20048;-70
2022/09/10 07:08:57;;;;;;;44.53;25.17;;;15.80;99.90;;;;;;5021732;28;20069;-73
2022/09/10 07:11:24;;;;;;;37.53;24.07;;;15.80;99.90;;;;;;5023197;28;20510;-70
2022/09/10 07:13:51;;;;;;;41.47;23.75;;;15.80;99.90;;;;;;5025299;28;20049;-71
2022/09/10 07:16:21;;;;;;;42.67;24.23;;;15.80;99.90;;;;;;5022421;28;20045;-70
2022/09/10 07:18:49;;;;;;;39.88;23.08;;;15.80;99.90;;;;;;5033064;28;20049;-71
2022/09/10 07:21:16;;;;;;;42.15;23.98;;;15.90;99.90;;;;;;5037572;28;20048;-69
2022/09/10 07:23:43;;;;;;;40.60;22.27;;;15.90;99.90;;;;;;5037553;28;20033;-70
2022/09/10 07:26:14;;;;;;;39.92;21.90;;;15.90;99.90;;;;;;5037722;28;20450;-71
2022/09/10 07:28:41;;;;;;;37.78;23.20;;;15.90;99.90;;;;;;5014043;28;20061;-70
2022/09/10 07:31:15;;;;;;;38.58;22.15;;;16.00;99.90;;;;;;5031278;28;20045;-70
2022/09/10 07:33:42;;;;;;;32.47;20.40;;;16.00;99.90;;;;;;5034365;28;20049;-71
2022/09/10 07:36:08;;;;;;;31.90;20.85;;;16.00;99.90;;;;;;5037789;28;20049;-69
2022/09/10 07:38:38;;;;;;;30.45;17.40;;;16.20;99.90;;;;;;5037424;28;20060;-69
2022/09/10 07:41:05;;;;;;;37.13;21.60;;;16.10;99.90;;;;;;5036609;28;20049;-69
2022/09/10 07:43:31;;;;;;;33.78;21.85;;;16.20;99.90;;;;;;5020166;28;20041;-71
2022/09/10 07:45:56;;;;;;;38.03;21.95;;;16.20;99.90;;;;;;5037398;28;20351;-69
2022/09/10 07:48:22;;;;;;;35.58;22.95;;;16.40;99.90;;;;;;5037465;28;20053;-69
2022/09/10 07:50:47;;;;;;;31.50;20.73;;;16.40;99.90;;;;;;5037502;28;20107;-69
2022/09/10 07:53:13;;;;;;;36.47;22.15;;;16.40;99.90;;;;;;5036973;28;20045;-68
2022/09/10 07:55:39;;;;;;;29.83;19.25;;;16.50;99.90;;;;;;5037078;28;20049;-68
2022/09/10 07:58:05;;;;;;;35.55;21.92;;;16.50;99.90;;;;;;5037207;28;20512;-69
2022/09/10 08:00:30;;;;;;;36.70;21.00;;;16.50;99.90;;;;;;5036953;28;20041;-68
2022/09/10 08:02:56;;;;;;;29.33;21.52;;;16.60;99.90;;;;;;5036721;28;20055;-68
2022/09/10 08:05:22;;;;;;;34.15;21.55;;;16.60;99.90;;;;;;5037567;28;20058;-68
2022/09/10 08:07:52;;;;;;;30.00;19.73;;;16.60;99.90;;;;;;5022668;28;20046;-70
2022/09/10 08:10:18;;;;;;;28.23;20.45;;;16.60;99.90;;;;;;5036066;28;20119;-70
2022/09/10 08:12:43;;;;;;;33.13;21.33;;;16.70;99.90;;;;;;5036945;28;20461;-68
2022/09/10 08:15:09;;;;;;;34.53;20.55;;;16.60;99.90;;;;;;5036576;28;20037;-68
2022/09/10 08:17:35;;;;;;;28.45;19.85;;;16.70;99.90;;;;;;5036922;28;20065;-68
2022/09/10 08:20:06;;;;;;;31.98;21.10;;;16.80;99.90;;;;;;5039004;28;20041;-68
2022/09/10 08:22:33;;;;;;;36.10;21.77;;;16.70;99.90;;;;;;5038000;28;20050;-71
2022/09/10 08:24:59;;;;;;;31.05;21.63;;;16.80;99.90;;;;;;5033277;28;20091;-68
2022/09/10 08:27:25;;;;;;;35.88;22.60;;;16.80;99.90;;;;;;5021704;28;20041;-70
2022/09/10 08:29:50;;;;;;;32.25;20.83;;;16.90;99.90;;;;;;5024735;28;20067;-69
2022/09/10 08:32:16;;;;;;;31.17;21.17;;;16.90;99.90;;;;;;5033374;28;20052;-70
2022/09/10 08:34:41;;;;;;;29.30;21.92;;;16.90;99.90;;;;;;5036825;28;20041;-69
2022/09/10 08:37:07;;;;;;;38.30;22.23;;;17.00;99.90;;;;;;5036457;28;20105;-70
2022/09/10 08:39:33;;;;;;;33.10;21.08;;;17.10;99.90;;;;;;5035836;28;20065;-70
2022/09/10 08:42:05;;;;;;;33.58;19.48;;;17.30;99.90;;;;;;5036223;28;20049;-70
2022/09/10 08:44:34;;;;;;;26.73;20.52;;;17.40;99.90;;;;;;5036025;28;20120;-70
2022/09/10 08:47:28;;;;;;;31.10;20.58;;;17.50;99.90;;;;;;5036388;28;20187;-69
2022/09/10 08:49:59;;;;;;;30.33;19.88;;;17.60;99.90;;;;;;5036763;28;20120;-69
2022/09/10 08:52:47;;;;;;;30.98;19.77;;;17.70;99.90;;;;;;5036333;28;20045;-70
2022/09/10 08:55:25;;;;;;;28.55;19.27;;;17.60;99.90;;;;;;5018857;28;20049;-69
2022/09/10 08:58:06;;;;;;;31.95;21.55;;;17.60;99.90;;;;;;5036372;28;20053;-71
2022/09/10 09:00:36;;;;;;;26.58;19.27;;;17.70;99.90;;;;;;5036187;28;20049;-71
2022/09/10 09:03:09;;;;;;;27.67;19.85;;;17.70;99.90;;;;;;5034900;28;20042;-72
2022/09/10 09:05:56;;;;;;;30.05;19.33;;;17.70;99.90;;;;;;5036019;28;20077;-71
2022/09/10 09:08:26;;;;;;;29.63;19.92;;;17.80;99.90;;;;;;5036100;28;20041;-71
2022/09/10 09:11:10;;;;;;;29.60;18.17;;;17.80;99.90;;;;;;5035496;28;20041;-68
2022/09/10 09:13:52;;;;;;;26.73;19.15;;;17.80;99.90;;;;;;5035188;28;20041;-69
2022/09/10 09:16:27;;;;;;;26.67;20.17;;;17.90;99.90;;;;;;5031064;28;20120;-69
2022/09/10 09:18:53;;;;;;;27.50;16.92;;;17.90;99.90;;;;;;5017485;28;20056;-70
2022/09/10 09:21:42;;;;;;;22.77;16.73;;;17.90;99.90;;;;;;5017233;28;20053;-69
2022/09/10 09:24:17;;;;;;;27.77;19.48;;;17.90;99.90;;;;;;5035684;28;20045;-69
2022/09/10 09:26:46;;;;;;;29.00;18.88;;;18.00;99.90;;;;;;5034531;28;20122;-70
2022/09/10 09:29:21;;;;;;;31.08;18.83;;;18.10;99.90;;;;;;5035357;28;20053;-69
2022/09/10 09:31:51;;;;;;;24.25;18.73;;;18.10;99.90;;;;;;5035670;28;20478;-70
2022/09/10 09:34:26;;;;;;;23.80;17.17;;;18.20;99.90;;;;;;5035361;28;20076;-69
2022/09/10 09:36:55;;;;;;;25.55;18.20;;;18.40;99.90;;;;;;5030056;28;20041;-69
2022/09/10 09:39:29;;;;;;;23.85;16.48;;;18.50;99.90;;;;;;5034005;28;20144;-69
2022/09/10 09:42:20;;;;;;;25.13;17.25;;;18.60;99.90;;;;;;5017718;28;20132;-69
2022/09/10 09:44:48;;;;;;;24.23;16.20;;;18.80;99.90;;;;;;5034905;28;20437;-70
2022/09/10 09:47:14;;;;;;;23.73;16.42;;;18.90;99.90;;;;;;5017332;28;20057;-69
2022/09/10 09:49:40;;;;;;;23.02;17.05;;;19.10;99.90;;;;;;5035024;28;20458;-70
2022/09/10 09:52:21;;;;;;;20.65;16.15;;;19.20;99.90;;;;;;5034157;28;20112;-69
2022/09/10 09:55:10;;;;;;;20.13;15.95;;;19.10;99.90;;;;;;5035600;28;20049;-69
2022/09/10 09:57:36;;;;;;;24.13;16.27;;;19.10;99.90;;;;;;5035199;28;20429;-69
2022/09/10 10:00:34;;;;;;;18.38;15.20;;;19.20;99.90;;;;;;5017920;28;20049;-69
2022/09/10 10:03:12;;;;;;;20.17;14.80;;;19.20;99.90;;;;;;5026221;28;20097;-70
2022/09/10 10:05:38;;;;;;;17.77;14.02;;;19.30;99.90;;;;;;5015516;28;20060;-70
2022/09/10 10:08:03;;;;;;;22.27;14.18;;;19.20;99.90;;;;;;4998303;28;20362;-69
2022/09/10 10:10:29;;;;;;;20.52;14.43;;;19.20;99.90;;;;;;5025186;28;20053;-69
2022/09/10 10:12:55;;;;;;;19.50;13.55;;;19.20;99.90;;;;;;5034314;28;20129;-69
2022/09/10 10:15:40;;;;;;;24.42;14.15;;;19.10;99.90;;;;;;5017193;28;20129;-69
2022/09/10 10:18:21;;;;;;;19.92;13.80;;;19.20;99.90;;;;;;5034651;28;20052;-70
2022/09/10 10:20:48;;;;;;;19.27;13.27;;;19.10;99.90;;;;;;5034532;28;20053;-69
2022/09/10 10:23:37;;;;;;;15.85;11.50;;;19.10;99.90;;;;;;5034565;28;20068;-69
2022/09/10 10:26:34;;;;;;;16.90;11.98;;;19.20;99.90;;;;;;5017604;28;20446;-70
2022/09/10 10:29:05;;;;;;;17.13;12.55;;;19.20;99.90;;;;;;5034155;28;20469;-69
2022/09/10 10:31:38;;;;;;;15.63;11.32;;;19.30;99.90;;;;;;5017155;28;20134;-70
2022/09/10 10:34:13;;;;;;;18.60;10.77;;;19.30;99.90;;;;;;5034323;28;20063;-69
2022/09/10 10:36:42;;;;;;;15.00;11.23;;;19.30;99.90;;;;;;5034541;28;20422;-71
2022/09/10 10:39:30;;;;;;;17.40;10.85;;;19.40;99.90;;;;;;5034600;28;20054;-70
2022/09/10 10:42:17;;;;;;;17.75;12.00;;;19.30;99.90;;;;;;5034306;28;20053;-70
2022/09/10 10:45:15;;;;;;;14.75;10.93;;;19.40;99.90;;;;;;5034326;28;20144;-69
2022/09/10 10:47:53;;;;;;;13.85;10.60;;;19.50;99.90;;;;;;4979598;28;20052;-69
2022/09/10 10:50:28;;;;;;;13.20;9.55;;;19.40;99.90;;;;;;5018777;28;20061;-69
2022/09/10 10:53:37;;;;;;;12.95;9.40;;;19.50;99.90;;;;;;5037277;28;20377;-69
2022/09/10 10:56:21;;;;;;;14.35;9.45;;;19.60;99.90;;;;;;5037014;28;20083;-69
2022/09/10 10:59:22;;;;;;;16.02;9.52;;;19.80;99.90;;;;;;5035645;28;20472;-69
2022/09/10 11:01:54;;;;;;;15.85;9.82;;;19.80;99.90;;;;;;5021784;28;20050;-69
2022/09/10 11:04:49;;;;;;;14.53;10.47;;;19.90;99.90;;;;;;5026146;28;20058;-72
2022/09/10 11:07:30;;;;;;;16.48;10.32;;;20.00;99.90;;;;;;5016766;28;20054;-68
2022/09/10 11:10:10;;;;;;;14.23;11.38;;;20.00;99.90;;;;;;5018489;28;20165;-70
2022/09/10 11:13:02;;;;;;;16.63;12.02;;;20.20;99.90;;;;;;5002532;28;20057;-71
2022/09/10 11:15:45;;;;;;;15.27;11.77;;;20.30;99.90;;;;;;5017847;28;20331;-69
2022/09/10 11:18:18;;;;;;;13.30;9.65;;;20.50;99.90;;;;;;5019706;28;20089;-72
2022/09/10 11:21:03;;;;;;;12.18;9.57;;;20.60;99.90;;;;;;5026920;28;20049;-70
2022/09/10 11:23:44;;;;;;;11.63;8.77;;;20.60;99.90;;;;;;5031087;28;20045;-70
2022/09/10 11:26:37;;;;;;;13.30;10.00;;;20.60;99.90;;;;;;5017893;28;20418;-72
2022/09/10 11:29:38;;;;;;;12.60;8.80;;;20.60;99.90;;;;;;5017902;28;20042;-69
2022/09/10 11:32:06;;;;;;;11.23;7.93;;;20.60;99.90;;;;;;4938559;29;20056;-70
2022/09/10 11:35:05;;;;;;;11.93;8.20;;;20.50;99.90;;;;;;5002933;28;20100;-72
2022/09/10 11:37:31;;;;;;;14.65;9.82;;;20.50;99.90;;;;;;5021079;28;20415;-69
2022/09/10 11:40:01;;;;;;;12.30;9.00;;;20.50;99.90;;;;;;5035054;28;20150;-70
2022/09/10 11:42:39;;;;;;;11.82;8.27;;;20.40;99.90;;;;;;5036416;28;20072;-72
2022/09/10 11:45:18;;;;;;;11.88;8.45;;;20.40;99.90;;;;;;5036395;28;20120;-68
2022/09/10 11:47:49;;;;;;;12.90;8.18;;;20.70;99.90;;;;;;5030943;28;20060;-69
2022/09/10 11:50:31;;;;;;;10.73;6.60;;;20.80;99.90;;;;;;5041195;28;20041;-70
2022/09/10 11:52:58;;;;;;;11.77;7.47;;;21.10;99.90;;;;;;5042264;28;20128;-68
2022/09/10 11:55:53;;;;;;;8.90;7.03;;;21.20;99.90;;;;;;5037000;28;20041;-68
2022/09/10 11:58:39;;;;;;;12.75;7.57;;;21.40;99.90;;;;;;5034693;28;20122;-67
2022/09/10 12:01:42;;;;;;;10.02;6.80;;;21.40;99.90;;;;;;5037423;28;20456;-68
2022/09/10 12:04:37;;;;;;;9.10;5.82;;;21.40;99.90;;;;;;5014752;28;20067;-67
2022/09/10 12:07:15;;;;;;;8.48;5.55;;;21.20;99.90;;;;;;5002598;28;20053;-69
2022/09/10 12:09:54;;;;;;;10.52;6.90;;;21.20;99.90;;;;;;5036985;28;20045;-67
2022/09/10 12:12:49;;;;;;;10.32;7.38;;;21.10;99.90;;;;;;5036496;28;20057;-69
2022/09/10 12:15:20;;;;;;;11.13;6.72;;;21.20;99.90;;;;;;5035610;28;20060;-67
2022/09/10 12:17:52;;;;;;;9.95;7.93;;;21.20;99.90;;;;;;5035444;28;20430;-68
2022/09/10 12:20:25;;;;;;;11.45;7.75;;;21.20;99.90;;;;;;5036834;28;20041;-68
2022/09/10 12:22:53;;;;;;;10.30;7.72;;;21.40;99.90;;;;;;5037024;28;20057;-67
2022/09/10 12:25:19;;;;;;;12.00;8.65;;;21.30;99.90;;;;;;5036327;28;20088;-68
2022/09/10 12:27:50;;;;;;;13.75;7.90;;;21.40;99.90;;;;;;5036127;28;20076;-70
2022/09/10 12:30:34;;;;;;;14.02;8.65;;;21.50;99.90;;;;;;5025829;28;20060;-68
2022/09/10 12:33:11;;;;;;;11.85;8.20;;;21.50;99.90;;;;;;5036050;28;20145;-67
2022/09/10 12:35:44;;;;;;;14.95;8.70;;;21.50;99.90;;;;;;5029242;28;20413;-69
2022/09/10 12:38:47;;;;;;;13.43;9.23;;;21.50;99.90;;;;;;5032369;28;20068;-67
2022/09/10 12:41:19;;;;;;;12.50;8.85;;;21.40;99.90;;;;;;5041585;28;20141;-68
2022/09/10 12:43:45;;;;;;;10.23;7.10;;;21.20;99.90;;;;;;5033766;28;20060;-67
2022/09/10 12:46:16;;;;;;;9.77;7.53;;;21.20;99.90;;;;;;5038683;28;20049;-67
2022/09/10 12:48:47;;;;;;;13.30;8.60;;;21.20;99.90;;;;;;5056182;28;20048;-69
2022/09/10 12:51:16;;;;;;;13.82;8.57;;;21.20;99.90;;;;;;5053398;28;20045;-67